sensor_id;sensor_type;location;lat;lon;timestamp;temperature;humidity
31819;DHT22;18384;48.860;9.188;2022-10-30T00:00:25;16.40;99.90
31819;DHT22;18384;48.860;9.188;2022-10-30T00:02:51;15.60;99.90
31819;DHT22;18384;48.860;9.188;2022-10-30T00:05:17;15.60;99.90
31819;DHT22;18384;48.860;9.188;2022-10-30T00:07:48;15.70;99.90
31819;DHT22;18384;48.860;9.188;2022-10-30T00:10:16;15.60;99.90
31819;DHT22;18384;48.860;9.188;2022-10-30T00:12:42;15.60;99.90
31819;DHT22;18384;48.860;9.188;2022-10-30T00:15:10;15.60;99.90
31819;DHT22;18384;48.860;9.188;2022-10-30T00:17:36;15.60;99.90
31819;DHT22;18384;48.860;9.188;2022-10-30T00:20:03;15.60;99.90
31819;DHT22;18384;48.860;9.188;2022-10-30T00:22:30;15.60;99.90
31819;DHT22;18384;48.860;9.188;2022-10-30T00:24:56;15.60;99.90
31819;DHT22;18384;48.860;9.188;2022-10-30T00:27:22;17.30;99.90
31819;DHT22;18384;48.860;9.188;2022-10-30T00:29:48;15.60;99.90
31819;DHT22;18384;48.860;9.188;2022-10-30T00:32:14;16.40;99.90
31819;DHT22;18384;48.860;9.188;2022-10-30T00:34:41;15.60;99.90
31819;DHT22;18384;48.860;9.188;2022-10-30T00:37:07;15.60;99.90
31819;DHT22;18384;48.860;9.188;2022-10-30T00:39:33;15.60;99.90
31819;DHT22;18384;48.860;9.188;2022-10-30T00:41:59;17.00;99.90
31819;DHT22;18384;48.860;9.188;2022-10-30T00:44:58;15.50;99.90
31819;DHT22;18384;48.860;9.188;2022-10-30T00:47:54;15.60;99.90
31819;DHT22;18384;48.860;9.188;2022-10-30T00:50:29;15.50;99.90
31819;DHT22;18384;48.860;9.188;2022-10-30T00:53:08;15.50;99.90
31819;DHT22;18384;48.860;9.188;2022-10-30T00:56:00;15.50;99.90
31819;DHT22;18384;48.860;9.188;2022-10-30T00:58:41;15.50;99.90
31819;DHT22;18384;48.860;9.188;2022-10-30T01:01:16;15.40;99.90
31819;DHT22;18384;48.860;9.188;2022-10-30T01:03:45;15.50;99.90
31819;DHT22;18384;48.860;9.188;2022-10-30T01:06:14;15.50;99.90
31819;DHT22;18384;48.860;9.188;2022-10-30T01:08:41;15.50;99.90
31819;DHT22;18384;48.860;9.188;2022-10-30T01:11:08;15.60;99.90
31819;DHT22;18384;48.860;9.188;2022-10-30T01:13:35;15.50;99.90
31819;DHT22;18384;48.860;9.188;2022-10-30T01:16:30;15.50;99.90
31819;DHT22;18384;48.860;9.188;2022-10-30T01:22:37;15.50;99.90
31819;DHT22;18384;48.860;9.188;2022-10-30T01:25:33;14.40;99.90
31819;DHT22;18384;48.860;9.188;2022-10-30T01:29:26;15.50;99.90
31819;DHT22;18384;48.860;9.188;2022-10-30T01:34:11;15.40;99.90
31819;DHT22;18384;48.860;9.188;2022-10-30T01:37:06;15.40;99.90
31819;DHT22;18384;48.860;9.188;2022-10-30T01:39:40;15.50;99.90
31819;DHT22;18384;48.860;9.188;2022-10-30T01:42:54;15.50;99.90
31819;DHT22;18384;48.860;9.188;2022-10-30T01:46:08;15.50;99.90
31819;DHT22;18384;48.860;9.188;2022-10-30T01:49:03;15.40;99.90
31819;DHT22;18384;48.860;9.188;2022-10-30T02:02:45;15.40;99.90
31819;DHT22;18384;48.860;9.188;2022-10-30T02:05:37;15.80;99.90
31819;DHT22;18384;48.860;9.188;2022-10-30T02:08:06;15.40;99.90
31819;DHT22;18384;48.860;9.188;2022-10-30T02:10:32;14.50;99.90
31819;DHT22;18384;48.860;9.188;2022-10-30T02:13:01;15.50;99.90
31819;DHT22;18384;48.860;9.188;2022-10-30T02:15:27;15.40;99.90
31819;DHT22;18384;48.860;9.188;2022-10-30T02:17:55;15.40;99.90
31819;DHT22;18384;48.860;9.188;2022-10-30T02:20:21;15.40;99.90
31819;DHT22;18384;48.860;9.188;2022-10-30T02:22:48;15.40;99.90
31819;DHT22;18384;48.860;9.188;2022-10-30T02:25:14;15.40;99.90
31819;DHT22;18384;48.860;9.188;2022-10-30T02:27:41;15.40;99.90
31819;DHT22;18384;48.860;9.188;2022-10-30T02:30:09;15.40;99.90
31819;DHT22;18384;48.860;9.188;2022-10-30T02:32:35;15.40;99.90
31819;DHT22;18384;48.860;9.188;2022-10-30T02:35:01;15.40;99.90
31819;DHT22;18384;48.860;9.188;2022-10-30T02:37:28;15.30;99.90
31819;DHT22;18384;48.860;9.188;2022-10-30T02:39:55;15.40;99.90
31819;DHT22;18384;48.860;9.188;2022-10-30T02:42:21;15.30;99.90
31819;DHT22;18384;48.860;9.188;2022-10-30T02:44:47;15.30;99.90
31819;DHT22;18384;48.860;9.188;2022-10-30T02:47:13;15.40;99.90
31819;DHT22;18384;48.860;9.188;2022-10-30T02:49:40;15.40;99.90
31819;DHT22;18384;48.860;9.188;2022-10-30T02:52:06;15.30;99.90
31819;DHT22;18384;48.860;9.188;2022-10-30T02:54:34;15.40;99.90
31819;DHT22;18384;48.860;9.188;2022-10-30T02:57:00;15.30;99.90
31819;DHT22;18384;48.860;9.188;2022-10-30T02:59:26;15.30;99.90
31819;DHT22;18384;48.860;9.188;2022-10-30T03:01:52;15.30;99.90
31819;DHT22;18384;48.860;9.188;2022-10-30T03:04:18;15.20;99.90
31819;DHT22;18384;48.860;9.188;2022-10-30T03:06:44;15.20;99.90
31819;DHT22;18384;48.860;9.188;2022-10-30T03:09:10;15.20;99.90
31819;DHT22;18384;48.860;9.188;2022-10-30T03:11:37;15.20;99.90
31819;DHT22;18384;48.860;9.188;2022-10-30T03:14:03;15.10;99.90
31819;DHT22;18384;48.860;9.188;2022-10-30T03:16:29;15.10;99.90
31819;DHT22;18384;48.860;9.188;2022-10-30T03:18:57;15.20;99.90
31819;DHT22;18384;48.860;9.188;2022-10-30T03:21:25;15.10;99.90
31819;DHT22;18384;48.860;9.188;2022-10-30T03:23:52;15.10;99.90
31819;DHT22;18384;48.860;9.188;2022-10-30T03:26:19;15.10;99.90
31819;DHT22;18384;48.860;9.188;2022-10-30T03:28:46;15.10;99.90
31819;DHT22;18384;48.860;9.188;2022-10-30T03:31:15;15.10;99.90
31819;DHT22;18384;48.860;9.188;2022-10-30T03:33:43;15.10;99.90
31819;DHT22;18384;48.860;9.188;2022-10-30T03:36:11;15.10;99.90
31819;DHT22;18384;48.860;9.188;2022-10-30T03:38:38;15.10;99.90
31819;DHT22;18384;48.860;9.188;2022-10-30T03:41:05;15.00;99.90
31819;DHT22;18384;48.860;9.188;2022-10-30T03:43:32;16.40;99.90
31819;DHT22;18384;48.860;9.188;2022-10-30T03:45:58;15.00;99.90
31819;DHT22;18384;48.860;9.188;2022-10-30T03:48:26;15.00;99.90
31819;DHT22;18384;48.860;9.188;2022-10-30T03:50:54;14.90;99.90
31819;DHT22;18384;48.860;9.188;2022-10-30T03:53:22;14.90;99.90
31819;DHT22;18384;48.860;9.188;2022-10-30T03:55:51;14.90;99.90
31819;DHT22;18384;48.860;9.188;2022-10-30T03:58:18;14.90;99.90
31819;DHT22;18384;48.860;9.188;2022-10-30T04:00:44;14.90;99.90
31819;DHT22;18384;48.860;9.188;2022-10-30T04:03:10;14.90;99.90
31819;DHT22;18384;48.860;9.188;2022-10-30T04:05:37;14.80;99.90
31819;DHT22;18384;48.860;9.188;2022-10-30T04:08:05;14.80;99.90
31819;DHT22;18384;48.860;9.188;2022-10-30T04:10:33;14.80;99.90
31819;DHT22;18384;48.860;9.188;2022-10-30T04:13:01;14.80;99.90
31819;DHT22;18384;48.860;9.188;2022-10-30T04:15:31;14.80;99.90
31819;DHT22;18384;48.860;9.188;2022-10-30T04:17:58;14.80;99.90
31819;DHT22;18384;48.860;9.188;2022-10-30T04:20:24;14.70;99.90
31819;DHT22;18384;48.860;9.188;2022-10-30T04:22:59;14.70;99.90
31819;DHT22;18384;48.860;9.188;2022-10-30T04:25:26;14.70;99.90
31819;DHT22;18384;48.860;9.188;2022-10-30T04:27:54;14.70;99.90
31819;DHT22;18384;48.860;9.188;2022-10-30T04:30:21;14.70;99.90
31819;DHT22;18384;48.860;9.188;2022-10-30T04:32:56;14.70;99.90
31819;DHT22;18384;48.860;9.188;2022-10-30T04:35:24;14.70;99.90
31819;DHT22;18384;48.860;9.188;2022-10-30T04:37:54;14.70;99.90
31819;DHT22;18384;48.860;9.188;2022-10-30T04:40:22;14.60;99.90
31819;DHT22;18384;48.860;9.188;2022-10-30T04:42:50;14.60;99.90
31819;DHT22;18384;48.860;9.188;2022-10-30T04:45:17;14.60;99.90
31819;DHT22;18384;48.860;9.188;2022-10-30T04:47:44;14.60;99.90
31819;DHT22;18384;48.860;9.188;2022-10-30T04:50:10;14.60;99.90
31819;DHT22;18384;48.860;9.188;2022-10-30T04:52:37;14.60;99.90
31819;DHT22;18384;48.860;9.188;2022-10-30T04:55:03;14.50;99.90
31819;DHT22;18384;48.860;9.188;2022-10-30T04:57:30;14.50;99.90
31819;DHT22;18384;48.860;9.188;2022-10-30T04:59:57;14.60;99.90
31819;DHT22;18384;48.860;9.188;2022-10-30T05:02:23;14.50;99.90
31819;DHT22;18384;48.860;9.188;2022-10-30T05:04:49;14.50;99.90
31819;DHT22;18384;48.860;9.188;2022-10-30T05:07:16;14.50;99.90
31819;DHT22;18384;48.860;9.188;2022-10-30T05:09:43;14.50;99.90
31819;DHT22;18384;48.860;9.188;2022-10-30T05:12:09;14.50;99.90
31819;DHT22;18384;48.860;9.188;2022-10-30T05:14:36;14.50;99.90
31819;DHT22;18384;48.860;9.188;2022-10-30T05:17:02;14.50;99.90
31819;DHT22;18384;48.860;9.188;2022-10-30T05:19:28;14.50;99.90
31819;DHT22;18384;48.860;9.188;2022-10-30T05:21:54;14.50;99.90
31819;DHT22;18384;48.860;9.188;2022-10-30T05:24:20;14.50;99.90
31819;DHT22;18384;48.860;9.188;2022-10-30T05:26:46;14.40;99.90
31819;DHT22;18384;48.860;9.188;2022-10-30T05:29:13;14.40;99.90
31819;DHT22;18384;48.860;9.188;2022-10-30T05:31:39;14.40;99.90
31819;DHT22;18384;48.860;9.188;2022-10-30T05:34:05;14.40;99.90
31819;DHT22;18384;48.860;9.188;2022-10-30T05:36:31;14.40;99.90
31819;DHT22;18384;48.860;9.188;2022-10-30T05:38:57;14.40;99.90
31819;DHT22;18384;48.860;9.188;2022-10-30T05:41:23;14.30;99.90
31819;DHT22;18384;48.860;9.188;2022-10-30T05:43:50;14.30;99.90
31819;DHT22;18384;48.860;9.188;2022-10-30T05:46:16;14.30;99.90
31819;DHT22;18384;48.860;9.188;2022-10-30T05:48:42;14.30;99.90
31819;DHT22;18384;48.860;9.188;2022-10-30T05:51:08;14.30;99.90
31819;DHT22;18384;48.860;9.188;2022-10-30T05:53:34;14.20;99.90
31819;DHT22;18384;48.860;9.188;2022-10-30T05:56:00;14.20;99.90
31819;DHT22;18384;48.860;9.188;2022-10-30T05:58:26;14.20;99.90
31819;DHT22;18384;48.860;9.188;2022-10-30T06:00:52;14.20;99.90
31819;DHT22;18384;48.860;9.188;2022-10-30T06:03:18;14.20;99.90
31819;DHT22;18384;48.860;9.188;2022-10-30T06:05:46;14.20;99.90
31819;DHT22;18384;48.860;9.188;2022-10-30T06:08:12;14.20;99.90
31819;DHT22;18384;48.860;9.188;2022-10-30T06:10:41;14.20;99.90
31819;DHT22;18384;48.860;9.188;2022-10-30T06:13:08;14.20;99.90
31819;DHT22;18384;48.860;9.188;2022-10-30T06:15:35;14.20;99.90
31819;DHT22;18384;48.860;9.188;2022-10-30T06:18:01;14.20;99.90
31819;DHT22;18384;48.860;9.188;2022-10-30T06:20:29;14.20;99.90
31819;DHT22;18384;48.860;9.188;2022-10-30T06:22:57;14.20;99.90
31819;DHT22;18384;48.860;9.188;2022-10-30T06:25:26;14.20;99.90
31819;DHT22;18384;48.860;9.188;2022-10-30T06:27:53;14.20;99.90
31819;DHT22;18384;48.860;9.188;2022-10-30T06:30:20;14.20;99.90
31819;DHT22;18384;48.860;9.188;2022-10-30T06:32:47;14.20;99.90
31819;DHT22;18384;48.860;9.188;2022-10-30T06:35:13;14.20;99.90
31819;DHT22;18384;48.860;9.188;2022-10-30T06:37:47;14.20;99.90
31819;DHT22;18384;48.860;9.188;2022-10-30T06:40:14;14.30;99.90
31819;DHT22;18384;48.860;9.188;2022-10-30T06:42:45;14.30;99.90
31819;DHT22;18384;48.860;9.188;2022-10-30T06:45:13;14.30;99.90
31819;DHT22;18384;48.860;9.188;2022-10-30T06:47:40;14.30;99.90
31819;DHT22;18384;48.860;9.188;2022-10-30T06:50:12;14.40;99.90
31819;DHT22;18384;48.860;9.188;2022-10-30T06:52:43;14.40;99.90
31819;DHT22;18384;48.860;9.188;2022-10-30T06:55:10;14.40;99.90
31819;DHT22;18384;48.860;9.188;2022-10-30T06:57:36;14.50;99.90
31819;DHT22;18384;48.860;9.188;2022-10-30T07:00:03;14.50;99.90
31819;DHT22;18384;48.860;9.188;2022-10-30T07:02:30;14.60;99.90
31819;DHT22;18384;48.860;9.188;2022-10-30T07:04:57;14.60;99.90
31819;DHT22;18384;48.860;9.188;2022-10-30T07:07:23;14.70;99.90
31819;DHT22;18384;48.860;9.188;2022-10-30T07:09:49;14.70;99.90
31819;DHT22;18384;48.860;9.188;2022-10-30T07:12:15;14.20;99.90
31819;DHT22;18384;48.860;9.188;2022-10-30T07:14:41;14.70;99.90
31819;DHT22;18384;48.860;9.188;2022-10-30T07:17:08;14.80;99.90
31819;DHT22;18384;48.860;9.188;2022-10-30T07:19:34;14.80;99.90
31819;DHT22;18384;48.860;9.188;2022-10-30T07:22:00;14.80;99.90
31819;DHT22;18384;48.860;9.188;2022-10-30T07:24:27;14.90;99.90
31819;DHT22;18384;48.860;9.188;2022-10-30T07:26:54;14.90;99.90
31819;DHT22;18384;48.860;9.188;2022-10-30T07:29:21;15.00;99.90
31819;DHT22;18384;48.860;9.188;2022-10-30T07:31:46;15.00;99.90
31819;DHT22;18384;48.860;9.188;2022-10-30T07:34:14;15.10;99.90
31819;DHT22;18384;48.860;9.188;2022-10-30T07:36:41;15.10;99.90
31819;DHT22;18384;48.860;9.188;2022-10-30T07:39:07;15.20;99.90
31819;DHT22;18384;48.860;9.188;2022-10-30T07:41:33;15.20;99.90
31819;DHT22;18384;48.860;9.188;2022-10-30T07:43:59;15.30;99.90
31819;DHT22;18384;48.860;9.188;2022-10-30T07:46:25;15.30;99.90
31819;DHT22;18384;48.860;9.188;2022-10-30T07:48:51;15.30;99.90
31819;DHT22;18384;48.860;9.188;2022-10-30T07:51:17;15.40;99.90
31819;DHT22;18384;48.860;9.188;2022-10-30T07:53:43;15.40;99.90
31819;DHT22;18384;48.860;9.188;2022-10-30T07:56:09;15.50;99.90
31819;DHT22;18384;48.860;9.188;2022-10-30T07:58:35;15.50;99.90
31819;DHT22;18384;48.860;9.188;2022-10-30T08:01:02;15.50;99.90
31819;DHT22;18384;48.860;9.188;2022-10-30T08:03:28;15.60;99.90
31819;DHT22;18384;48.860;9.188;2022-10-30T08:05:54;15.70;99.90
31819;DHT22;18384;48.860;9.188;2022-10-30T08:08:20;15.70;99.90
31819;DHT22;18384;48.860;9.188;2022-10-30T08:10:47;15.80;99.90
31819;DHT22;18384;48.860;9.188;2022-10-30T08:13:13;15.80;99.90
31819;DHT22;18384;48.860;9.188;2022-10-30T08:15:41;15.80;99.90
31819;DHT22;18384;48.860;9.188;2022-10-30T08:18:07;15.90;99.90
31819;DHT22;18384;48.860;9.188;2022-10-30T08:20:33;16.00;99.90
31819;DHT22;18384;48.860;9.188;2022-10-30T08:23:00;16.00;99.90
31819;DHT22;18384;48.860;9.188;2022-10-30T08:25:28;16.10;99.90
31819;DHT22;18384;48.860;9.188;2022-10-30T08:28:00;16.10;99.90
31819;DHT22;18384;48.860;9.188;2022-10-30T08:30:30;16.20;99.90
31819;DHT22;18384;48.860;9.188;2022-10-30T08:33:00;16.30;99.90
31819;DHT22;18384;48.860;9.188;2022-10-30T08:35:27;16.30;99.90
31819;DHT22;18384;48.860;9.188;2022-10-30T08:37:54;16.40;99.90
31819;DHT22;18384;48.860;9.188;2022-10-30T08:40:21;16.40;99.90
31819;DHT22;18384;48.860;9.188;2022-10-30T08:42:51;16.40;99.90
31819;DHT22;18384;48.860;9.188;2022-10-30T08:45:19;16.50;99.90
31819;DHT22;18384;48.860;9.188;2022-10-30T08:47:46;16.50;99.90
31819;DHT22;18384;48.860;9.188;2022-10-30T08:50:12;16.50;99.90
31819;DHT22;18384;48.860;9.188;2022-10-30T08:52:39;16.60;99.90
31819;DHT22;18384;48.860;9.188;2022-10-30T08:55:06;16.70;99.90
31819;DHT22;18384;48.860;9.188;2022-10-30T08:57:36;16.70;99.90
31819;DHT22;18384;48.860;9.188;2022-10-30T09:00:04;16.70;99.90
31819;DHT22;18384;48.860;9.188;2022-10-30T09:02:31;16.80;99.90
31819;DHT22;18384;48.860;9.188;2022-10-30T09:04:58;16.80;99.90
31819;DHT22;18384;48.860;9.188;2022-10-30T09:07:24;16.80;99.90
31819;DHT22;18384;48.860;9.188;2022-10-30T09:09:50;16.90;99.90
31819;DHT22;18384;48.860;9.188;2022-10-30T09:12:16;16.90;99.90
31819;DHT22;18384;48.860;9.188;2022-10-30T09:14:42;17.00;99.90
31819;DHT22;18384;48.860;9.188;2022-10-30T09:17:08;17.00;99.90
31819;DHT22;18384;48.860;9.188;2022-10-30T09:19:34;17.10;99.90
31819;DHT22;18384;48.860;9.188;2022-10-30T09:22:00;17.10;99.90
31819;DHT22;18384;48.860;9.188;2022-10-30T09:24:26;17.20;99.90
31819;DHT22;18384;48.860;9.188;2022-10-30T09:26:54;17.20;99.90
31819;DHT22;18384;48.860;9.188;2022-10-30T09:29:20;17.10;99.90
31819;DHT22;18384;48.860;9.188;2022-10-30T09:31:46;17.20;99.90
31819;DHT22;18384;48.860;9.188;2022-10-30T09:34:13;17.30;99.90
31819;DHT22;18384;48.860;9.188;2022-10-30T09:36:39;17.30;99.90
31819;DHT22;18384;48.860;9.188;2022-10-30T09:39:09;17.40;99.90
31819;DHT22;18384;48.860;9.188;2022-10-30T09:42:34;17.50;99.90
31819;DHT22;18384;48.860;9.188;2022-10-30T09:47:04;17.50;99.90
31819;DHT22;18384;48.860;9.188;2022-10-30T09:53:29;17.70;99.90
31819;DHT22;18384;48.860;9.188;2022-10-30T09:56:14;17.90;99.90
31819;DHT22;18384;48.860;9.188;2022-10-30T10:03:35;18.00;99.90
31819;DHT22;18384;48.860;9.188;2022-10-30T10:06:22;18.10;99.90
31819;DHT22;18384;48.860;9.188;2022-10-30T10:09:01;18.10;99.90
31819;DHT22;18384;48.860;9.188;2022-10-30T10:11:38;18.20;99.90
31819;DHT22;18384;48.860;9.188;2022-10-30T10:17:02;18.40;99.90
31819;DHT22;18384;48.860;9.188;2022-10-30T10:20:16;18.50;99.90
31819;DHT22;18384;48.860;9.188;2022-10-30T10:23:01;18.50;99.90
31819;DHT22;18384;48.860;9.188;2022-10-30T10:25:31;18.60;99.90
31819;DHT22;18384;48.860;9.188;2022-10-30T10:30:41;18.70;99.60
31819;DHT22;18384;48.860;9.188;2022-10-30T10:33:29;18.90;99.80
31819;DHT22;18384;48.860;9.188;2022-10-30T10:36:38;18.90;99.10
31819;DHT22;18384;48.860;9.188;2022-10-30T10:44:10;19.10;99.40
31819;DHT22;18384;48.860;9.188;2022-10-30T10:48:27;19.20;99.00
31819;DHT22;18384;48.860;9.188;2022-10-30T10:51:21;19.30;99.00
31819;DHT22;18384;48.860;9.188;2022-10-30T10:54:01;19.30;98.90
31819;DHT22;18384;48.860;9.188;2022-10-30T10:56:40;19.30;98.70
31819;DHT22;18384;48.860;9.188;2022-10-30T10:59:32;19.40;98.60
31819;DHT22;18384;48.860;9.188;2022-10-30T11:05:57;19.50;98.60
31819;DHT22;18384;48.860;9.188;2022-10-30T11:08:31;19.90;98.70
31819;DHT22;18384;48.860;9.188;2022-10-30T11:11:05;19.60;98.20
31819;DHT22;18384;48.860;9.188;2022-10-30T11:13:37;19.70;98.40
31819;DHT22;18384;48.860;9.188;2022-10-30T11:16:28;19.80;98.60
31819;DHT22;18384;48.860;9.188;2022-10-30T11:20:20;19.80;97.90
31819;DHT22;18384;48.860;9.188;2022-10-30T11:22:52;19.90;98.00
31819;DHT22;18384;48.860;9.188;2022-10-30T11:25:24;20.00;98.10
31819;DHT22;18384;48.860;9.188;2022-10-30T11:27:56;20.10;97.70
31819;DHT22;18384;48.860;9.188;2022-10-30T11:30:26;20.10;97.40
31819;DHT22;18384;48.860;9.188;2022-10-30T11:32:57;20.10;97.80
31819;DHT22;18384;48.860;9.188;2022-10-30T11:35:24;20.40;97.60
31819;DHT22;18384;48.860;9.188;2022-10-30T11:38:12;20.20;97.60
31819;DHT22;18384;48.860;9.188;2022-10-30T11:40:47;20.30;97.70
31819;DHT22;18384;48.860;9.188;2022-10-30T11:43:20;20.30;98.00
31819;DHT22;18384;48.860;9.188;2022-10-30T11:45:48;20.30;97.40
31819;DHT22;18384;48.860;9.188;2022-10-30T11:48:33;20.40;97.50
31819;DHT22;18384;48.860;9.188;2022-10-30T11:51:02;20.30;97.40
31819;DHT22;18384;48.860;9.188;2022-10-30T11:53:35;20.40;97.80
31819;DHT22;18384;48.860;9.188;2022-10-30T11:56:17;20.40;97.70
31819;DHT22;18384;48.860;9.188;2022-10-30T11:58:54;20.40;97.40
31819;DHT22;18384;48.860;9.188;2022-10-30T12:01:31;20.40;97.50
31819;DHT22;18384;48.860;9.188;2022-10-30T12:04:19;20.40;97.70
31819;DHT22;18384;48.860;9.188;2022-10-30T12:06:52;20.40;97.60
31819;DHT22;18384;48.860;9.188;2022-10-30T12:10:26;20.40;97.30
31819;DHT22;18384;48.860;9.188;2022-10-30T12:13:04;20.50;97.50
31819;DHT22;18384;48.860;9.188;2022-10-30T12:15:35;20.50;97.90
31819;DHT22;18384;48.860;9.188;2022-10-30T12:18:04;20.50;97.40
31819;DHT22;18384;48.860;9.188;2022-10-30T12:20:32;20.50;97.20
31819;DHT22;18384;48.860;9.188;2022-10-30T12:23:22;20.60;96.80
31819;DHT22;18384;48.860;9.188;2022-10-30T12:26:10;20.60;97.10
31819;DHT22;18384;48.860;9.188;2022-10-30T12:28:37;20.60;97.30
31819;DHT22;18384;48.860;9.188;2022-10-30T12:32:06;20.60;96.60
31819;DHT22;18384;48.860;9.188;2022-10-30T12:34:46;20.70;96.70
31819;DHT22;18384;48.860;9.188;2022-10-30T12:37:22;20.70;96.80
31819;DHT22;18384;48.860;9.188;2022-10-30T12:40:10;20.80;96.70
31819;DHT22;18384;48.860;9.188;2022-10-30T12:42:50;20.80;96.70
31819;DHT22;18384;48.860;9.188;2022-10-30T12:45:39;20.80;96.50
31819;DHT22;18384;48.860;9.188;2022-10-30T12:48:45;20.80;96.30
31819;DHT22;18384;48.860;9.188;2022-10-30T12:58:42;20.90;96.30
31819;DHT22;18384;48.860;9.188;2022-10-30T13:02:10;20.90;96.20
31819;DHT22;18384;48.860;9.188;2022-10-30T13:04:47;21.00;95.80
31819;DHT22;18384;48.860;9.188;2022-10-30T13:07:32;21.00;95.90
31819;DHT22;18384;48.860;9.188;2022-10-30T13:10:24;21.00;95.70
31819;DHT22;18384;48.860;9.188;2022-10-30T13:12:58;21.00;95.60
31819;DHT22;18384;48.860;9.188;2022-10-30T13:15:32;21.00;95.50
31819;DHT22;18384;48.860;9.188;2022-10-30T13:18:16;21.00;95.20
31819;DHT22;18384;48.860;9.188;2022-10-30T13:25:23;21.20;95.30
31819;DHT22;18384;48.860;9.188;2022-10-30T13:33:24;21.00;95.50
31819;DHT22;18384;48.860;9.188;2022-10-30T13:36:20;21.00;94.90
31819;DHT22;18384;48.860;9.188;2022-10-30T13:46:04;20.90;95.30
31819;DHT22;18384;48.860;9.188;2022-10-30T13:49:19;21.00;95.30
31819;DHT22;18384;48.860;9.188;2022-10-30T13:52:19;20.90;95.30
31819;DHT22;18384;48.860;9.188;2022-10-30T13:55:00;20.90;95.40
31819;DHT22;18384;48.860;9.188;2022-10-30T13:58:00;20.90;95.90
31819;DHT22;18384;48.860;9.188;2022-10-30T14:09:41;20.90;95.50
31819;DHT22;18384;48.860;9.188;2022-10-30T14:13:25;21.00;95.80
31819;DHT22;18384;48.860;9.188;2022-10-30T14:16:04;21.00;96.20
31819;DHT22;18384;48.860;9.188;2022-10-30T14:19:17;21.00;96.40
31819;DHT22;18384;48.860;9.188;2022-10-30T14:21:57;20.90;96.50
31819;DHT22;18384;48.860;9.188;2022-10-30T14:24:31;20.90;96.80
31819;DHT22;18384;48.860;9.188;2022-10-30T14:27:31;20.80;97.20
31819;DHT22;18384;48.860;9.188;2022-10-30T14:29:59;20.70;97.20
31819;DHT22;18384;48.860;9.188;2022-10-30T14:32:34;20.70;97.30
31819;DHT22;18384;48.860;9.188;2022-10-30T14:35:01;20.60;97.70
31819;DHT22;18384;48.860;9.188;2022-10-30T14:42:53;20.40;98.30
31819;DHT22;18384;48.860;9.188;2022-10-30T14:45:28;20.40;98.60
31819;DHT22;18384;48.860;9.188;2022-10-30T14:48:19;20.20;98.70
31819;DHT22;18384;48.860;9.188;2022-10-30T14:51:13;20.20;99.00
31819;DHT22;18384;48.860;9.188;2022-10-30T14:54:01;20.10;99.00
31819;DHT22;18384;48.860;9.188;2022-10-30T14:56:49;20.00;99.50
31819;DHT22;18384;48.860;9.188;2022-10-30T14:59:29;19.90;99.40
31819;DHT22;18384;48.860;9.188;2022-10-30T15:02:22;19.90;99.50
31819;DHT22;18384;48.860;9.188;2022-10-30T15:05:16;19.90;99.60
31819;DHT22;18384;48.860;9.188;2022-10-30T15:08:31;19.80;99.80
31819;DHT22;18384;48.860;9.188;2022-10-30T15:13:16;19.70;99.90
31819;DHT22;18384;48.860;9.188;2022-10-30T15:15:44;19.60;99.90
31819;DHT22;18384;48.860;9.188;2022-10-30T15:18:17;19.50;99.90
31819;DHT22;18384;48.860;9.188;2022-10-30T15:20:49;19.50;99.90
31819;DHT22;18384;48.860;9.188;2022-10-30T15:23:27;19.40;99.90
31819;DHT22;18384;48.860;9.188;2022-10-30T15:25:58;19.40;99.90
31819;DHT22;18384;48.860;9.188;2022-10-30T15:28:32;19.30;99.90
31819;DHT22;18384;48.860;9.188;2022-10-30T15:31:04;19.20;99.90
31819;DHT22;18384;48.860;9.188;2022-10-30T15:33:34;19.10;99.90
31819;DHT22;18384;48.860;9.188;2022-10-30T15:36:03;19.00;99.90
31819;DHT22;18384;48.860;9.188;2022-10-30T15:38:30;18.90;99.90
31819;DHT22;18384;48.860;9.188;2022-10-30T15:40:58;18.90;99.90
31819;DHT22;18384;48.860;9.188;2022-10-30T15:43:33;18.80;99.90
31819;DHT22;18384;48.860;9.188;2022-10-30T15:46:07;18.80;99.90
31819;DHT22;18384;48.860;9.188;2022-10-30T15:48:35;18.70;99.90
31819;DHT22;18384;48.860;9.188;2022-10-30T15:51:12;18.60;99.90
31819;DHT22;18384;48.860;9.188;2022-10-30T15:53:52;18.60;99.90
31819;DHT22;18384;48.860;9.188;2022-10-30T15:56:35;18.50;99.90
31819;DHT22;18384;48.860;9.188;2022-10-30T15:59:04;18.40;99.90
31819;DHT22;18384;48.860;9.188;2022-10-30T16:01:34;18.40;99.90
31819;DHT22;18384;48.860;9.188;2022-10-30T16:04:03;18.30;99.90
31819;DHT22;18384;48.860;9.188;2022-10-30T16:06:39;18.30;99.90
31819;DHT22;18384;48.860;9.188;2022-10-30T16:09:13;18.20;99.90
31819;DHT22;18384;48.860;9.188;2022-10-30T16:11:40;18.10;99.90
31819;DHT22;18384;48.860;9.188;2022-10-30T16:14:09;18.10;99.90
31819;DHT22;18384;48.860;9.188;2022-10-30T16:16:42;18.00;99.90
31819;DHT22;18384;48.860;9.188;2022-10-30T16:19:15;17.90;99.90
31819;DHT22;18384;48.860;9.188;2022-10-30T16:21:47;17.90;99.90
31819;DHT22;18384;48.860;9.188;2022-10-30T16:24:15;17.80;99.90
31819;DHT22;18384;48.860;9.188;2022-10-30T16:26:43;17.90;99.90
31819;DHT22;18384;48.860;9.188;2022-10-30T16:29:27;17.70;99.90
31819;DHT22;18384;48.860;9.188;2022-10-30T16:31:54;17.60;99.90
31819;DHT22;18384;48.860;9.188;2022-10-30T16:34:27;17.70;99.90
31819;DHT22;18384;48.860;9.188;2022-10-30T16:37:01;17.70;99.90
31819;DHT22;18384;48.860;9.188;2022-10-30T16:39:28;17.40;99.90
31819;DHT22;18384;48.860;9.188;2022-10-30T16:41:57;17.40;99.90
31819;DHT22;18384;48.860;9.188;2022-10-30T16:44:32;17.40;99.90
31819;DHT22;18384;48.860;9.188;2022-10-30T16:47:23;17.30;99.90
31819;DHT22;18384;48.860;9.188;2022-10-30T16:49:57;17.20;99.90
31819;DHT22;18384;48.860;9.188;2022-10-30T16:52:31;17.20;99.90
31819;DHT22;18384;48.860;9.188;2022-10-30T16:55:07;17.10;99.90
31819;DHT22;18384;48.860;9.188;2022-10-30T16:57:43;17.10;99.90
31819;DHT22;18384;48.860;9.188;2022-10-30T17:00:26;17.00;99.90
31819;DHT22;18384;48.860;9.188;2022-10-30T17:02:55;17.00;99.90
31819;DHT22;18384;48.860;9.188;2022-10-30T17:05:30;16.90;99.90
31819;DHT22;18384;48.860;9.188;2022-10-30T17:08:43;16.90;99.90
31819;DHT22;18384;48.860;9.188;2022-10-30T17:11:18;16.90;99.90
31819;DHT22;18384;48.860;9.188;2022-10-30T17:13:58;16.90;99.90
31819;DHT22;18384;48.860;9.188;2022-10-30T17:16:31;16.80;99.90
31819;DHT22;18384;48.860;9.188;2022-10-30T17:19:01;16.80;99.90
31819;DHT22;18384;48.860;9.188;2022-10-30T17:22:08;16.80;99.90
31819;DHT22;18384;48.860;9.188;2022-10-30T17:24:36;16.70;99.90
31819;DHT22;18384;48.860;9.188;2022-10-30T17:27:05;16.70;99.90
31819;DHT22;18384;48.860;9.188;2022-10-30T17:29:51;16.70;99.90
31819;DHT22;18384;48.860;9.188;2022-10-30T17:32:40;16.60;99.90
31819;DHT22;18384;48.860;9.188;2022-10-30T17:35:15;16.60;99.90